createdAt,value
2023-02-02T00:01:43.612Z,3.07
2023-02-02T00:04:24.022Z,2.50
2023-02-02T00:06:50.670Z,2.07
2023-02-02T00:09:19.139Z,2.87
2023-02-02T00:11:57.811Z,2.47
2023-02-02T00:14:44.630Z,3.00
2023-02-02T00:17:11.243Z,2.80
2023-02-02T00:19:37.908Z,2.73
2023-02-02T00:22:07.092Z,2.60
2023-02-02T00:24:33.816Z,2.50
2023-02-02T00:27:00.784Z,2.50
2023-02-02T00:29:29.814Z,2.63
2023-02-02T00:31:56.750Z,3.17
2023-02-02T00:34:26.406Z,2.27
2023-02-02T00:36:57.624Z,2.40
2023-02-02T00:39:28.574Z,2.60
2023-02-02T00:41:55.265Z,2.50
2023-02-02T00:44:40.468Z,2.47
2023-02-02T00:47:07.119Z,3.23
2023-02-02T00:49:33.747Z,2.33
2023-02-02T00:52:00.526Z,2.37
2023-02-02T00:54:27.646Z,2.60
2023-02-02T00:56:54.541Z,2.57
2023-02-02T00:59:21.213Z,2.83
2023-02-02T01:01:48.007Z,2.70
2023-02-02T01:04:14.614Z,2.93
2023-02-02T01:06:41.315Z,2.70
2023-02-02T01:09:08.314Z,2.43
2023-02-02T01:11:34.947Z,3.40
2023-02-02T01:14:02.856Z,2.60
2023-02-02T01:16:29.690Z,2.63
2023-02-02T01:18:56.395Z,2.97
2023-02-02T01:21:23.601Z,3.30
2023-02-02T01:23:50.392Z,2.50
2023-02-02T01:26:22.263Z,2.23
2023-02-02T01:28:48.938Z,2.50
2023-02-02T01:31:17.607Z,3.23
2023-02-02T01:33:45.415Z,3.60
2023-02-02T01:36:14.596Z,2.77
2023-02-02T01:38:42.558Z,2.97
2023-02-02T01:41:12.922Z,3.17
2023-02-02T01:43:45.501Z,2.50
2023-02-02T01:46:16.312Z,2.73
2023-02-02T01:48:52.477Z,2.57
2023-02-02T01:51:38.794Z,2.70
2023-02-02T01:54:08.587Z,3.10
2023-02-02T01:56:39.692Z,2.50
2023-02-02T01:59:06.476Z,2.80
2023-02-02T02:01:33.473Z,2.97
2023-02-02T02:04:00.536Z,2.50
2023-02-02T02:06:28.517Z,2.47
2023-02-02T02:09:00.352Z,2.80
2023-02-02T02:11:27.351Z,2.53
2023-02-02T02:14:14.104Z,2.50
2023-02-02T02:17:02.896Z,2.20
2023-02-02T02:20:07.539Z,2.57
2023-02-02T02:23:14.485Z,2.40
2023-02-02T02:26:32.317Z,2.50
2023-02-02T02:29:17.654Z,2.20
2023-02-02T02:31:53.899Z,2.80
2023-02-02T02:34:39.468Z,3.23
2023-02-02T02:37:26.739Z,2.53
2023-02-02T02:40:16.641Z,2.80
2023-02-02T02:42:48.871Z,2.30
2023-02-02T02:45:19.848Z,2.30
2023-02-02T02:47:49.771Z,2.60
2023-02-02T02:50:27.885Z,3.37
2023-02-02T02:53:17.035Z,3.10
2023-02-02T02:55:53.932Z,3.20
2023-02-02T02:58:32.139Z,2.97
2023-02-02T03:01:10.260Z,2.70
2023-02-02T03:03:57.949Z,2.30
2023-02-02T03:06:48.254Z,2.63
2023-02-02T03:09:31.480Z,2.40
2023-02-02T03:12:00.452Z,3.20
2023-02-02T03:14:29.414Z,3.20
2023-02-02T03:16:56.120Z,3.03
2023-02-02T03:19:23.939Z,2.60
2023-02-02T03:21:58.141Z,3.03
2023-02-02T03:24:42.457Z,3.07
2023-02-02T03:27:09.083Z,2.40
2023-02-02T03:29:35.811Z,3.80
2023-02-02T03:32:05.231Z,2.53
2023-02-02T03:34:31.936Z,3.57
2023-02-02T03:36:58.717Z,2.60
2023-02-02T03:39:28.287Z,3.20
2023-02-02T03:41:57.631Z,2.87
2023-02-02T03:44:33.210Z,2.80
2023-02-02T03:46:59.979Z,3.30
2023-02-02T03:49:29.743Z,2.33
2023-02-02T03:51:58.825Z,2.40
2023-02-02T03:54:29.480Z,3.67
2023-02-02T03:56:58.974Z,2.40
2023-02-02T03:59:30.463Z,3.13
2023-02-02T04:01:59.648Z,2.40
2023-02-02T04:04:34.020Z,2.30
2023-02-02T04:07:01.811Z,1.93
2023-02-02T04:09:28.573Z,2.67
2023-02-02T04:11:57.613Z,3.47
2023-02-02T04:14:31.836Z,2.43
2023-02-02T04:16:58.445Z,3.00
2023-02-02T04:19:27.020Z,2.67
2023-02-02T04:21:59.043Z,2.63
2023-02-02T04:24:25.782Z,3.70
2023-02-02T04:26:52.528Z,3.20
2023-02-02T04:29:19.163Z,2.93
2023-02-02T04:31:45.888Z,2.83
2023-02-02T04:34:17.813Z,3.53
2023-02-02T04:36:44.781Z,3.17
2023-02-02T04:39:12.257Z,3.37
2023-02-02T04:41:38.999Z,2.60
2023-02-02T04:44:06.842Z,2.40
2023-02-02T04:46:33.616Z,2.90
2023-02-02T04:49:00.182Z,2.90
2023-02-02T04:51:26.847Z,3.07
2023-02-02T04:53:53.517Z,2.80
2023-02-02T04:56:20.060Z,2.90
2023-02-02T04:58:49.137Z,3.03
2023-02-02T05:01:18.972Z,3.00
2023-02-02T05:03:46.178Z,2.47
2023-02-02T05:06:15.784Z,2.93
2023-02-02T05:08:43.353Z,2.23
2023-02-02T05:11:11.274Z,3.43
2023-02-02T05:13:38.231Z,3.73
2023-02-02T05:16:05.490Z,2.67
2023-02-02T05:18:32.752Z,3.13
2023-02-02T05:21:03.748Z,3.13
2023-02-02T05:23:30.823Z,2.50
2023-02-02T05:25:57.617Z,2.63
2023-02-02T05:28:24.809Z,3.37
2023-02-02T05:30:51.646Z,3.40
2023-02-02T05:33:19.540Z,2.90
2023-02-02T05:35:49.425Z,2.93
2023-02-02T05:38:16.422Z,2.90
2023-02-02T05:40:43.056Z,3.10
2023-02-02T05:43:09.775Z,3.50
2023-02-02T05:45:36.624Z,3.27
2023-02-02T05:48:03.375Z,2.90
2023-02-02T05:50:30.059Z,2.87
2023-02-02T05:53:04.137Z,2.97
2023-02-02T05:55:30.747Z,2.97
2023-02-02T05:57:59.672Z,3.20
2023-02-02T06:00:26.422Z,3.30
2023-02-02T06:02:53.080Z,3.20
2023-02-02T06:05:23.392Z,3.20
2023-02-02T06:07:59.039Z,3.10
2023-02-02T06:10:25.648Z,4.07
2023-02-02T06:12:52.247Z,3.33
2023-02-02T06:15:29.358Z,3.00
2023-02-02T06:17:56.129Z,3.13
2023-02-02T06:20:22.905Z,3.67
2023-02-02T06:22:59.358Z,2.43
2023-02-02T06:25:26.223Z,3.17
2023-02-02T06:27:59.969Z,2.80
2023-02-02T06:30:27.702Z,2.13
2023-02-02T06:32:54.500Z,1.80
2023-02-02T06:35:21.322Z,2.33
2023-02-02T06:37:48.401Z,2.30
2023-02-02T06:40:15.343Z,2.13
2023-02-02T06:43:04.721Z,1.93
2023-02-02T06:45:31.527Z,2.33
2023-02-02T06:48:04.139Z,1.70
2023-02-02T06:50:30.877Z,2.00
2023-02-02T06:52:57.840Z,2.10
2023-02-02T06:55:24.811Z,2.40
2023-02-02T06:57:57.506Z,2.20
2023-02-02T07:00:25.736Z,1.60
2023-02-02T07:02:55.670Z,2.17
2023-02-02T07:05:24.222Z,2.40
2023-02-02T07:07:51.351Z,1.87
2023-02-02T07:11:13.664Z,2.17
2023-02-02T07:13:06.927Z,2.20
2023-02-02T07:15:34.532Z,3.20
2023-02-02T07:18:01.247Z,2.70
2023-02-02T07:20:27.924Z,2.63
2023-02-02T07:22:54.482Z,2.50
2023-02-02T07:25:21.137Z,2.13
2023-02-02T07:27:54.863Z,3.03
2023-02-02T07:30:22.073Z,2.00
2023-02-02T07:32:49.903Z,2.20
2023-02-02T07:35:22.510Z,2.00
2023-02-02T07:37:53.747Z,2.73
2023-02-02T07:40:20.578Z,1.90
2023-02-02T07:42:56.067Z,2.10
2023-02-02T07:45:27.534Z,1.50
2023-02-02T07:47:57.117Z,1.83
2023-02-02T07:50:24.066Z,1.80
2023-02-02T07:52:51.182Z,2.93
2023-02-02T07:55:20.801Z,3.03
2023-02-02T07:57:48.532Z,2.30
2023-02-02T08:00:19.737Z,2.53
2023-02-02T08:02:51.649Z,1.90
2023-02-02T08:05:27.540Z,2.27
2023-02-02T08:07:54.341Z,2.67
2023-02-02T08:10:24.505Z,2.37
2023-02-02T08:13:00.355Z,2.80
2023-02-02T08:15:27.266Z,2.00
2023-02-02T08:17:54.127Z,2.13
2023-02-02T08:20:27.998Z,1.97
2023-02-02T08:22:54.676Z,2.07
2023-02-02T08:25:25.783Z,2.30
2023-02-02T08:27:58.741Z,2.10
2023-02-02T08:30:25.509Z,2.50
2023-02-02T08:32:52.234Z,2.03
2023-02-02T08:35:40.236Z,3.13
2023-02-02T08:38:21.136Z,2.33
2023-02-02T08:40:47.735Z,3.00
2023-02-02T08:43:16.499Z,2.30
2023-02-02T08:46:01.532Z,2.13
2023-02-02T08:48:37.658Z,2.37
2023-02-02T08:51:04.863Z,2.60
2023-02-02T08:53:32.484Z,2.73
2023-02-02T08:56:09.727Z,2.07
2023-02-02T08:58:52.312Z,2.40
2023-02-02T09:01:28.838Z,2.27
2023-02-02T09:03:57.233Z,2.07
2023-02-02T09:06:28.660Z,2.70
2023-02-02T09:09:04.609Z,2.17
2023-02-02T09:11:31.647Z,2.50
2023-02-02T09:13:59.657Z,2.10
2023-02-02T09:16:33.033Z,2.30
2023-02-02T09:18:59.975Z,1.80
2023-02-02T09:21:26.658Z,2.00
2023-02-02T09:24:03.278Z,2.47
2023-02-02T09:26:30.269Z,1.90
2023-02-02T09:29:02.662Z,1.90
2023-02-02T09:31:31.425Z,2.10
2023-02-02T09:34:04.323Z,1.80
2023-02-02T09:36:31.372Z,1.87
2023-02-02T09:39:02.166Z,1.63
2023-02-02T09:41:34.923Z,2.40
2023-02-02T09:44:24.438Z,1.77
2023-02-02T09:46:57.200Z,1.73
2023-02-02T09:50:07.997Z,2.00
2023-02-02T09:52:34.664Z,1.83
2023-02-02T09:55:32.656Z,2.10
2023-02-02T09:58:12.237Z,2.67
2023-02-02T10:00:44.337Z,1.97
2023-02-02T10:03:16.486Z,2.50
2023-02-02T10:05:57.855Z,2.03
2023-02-02T10:08:34.977Z,3.33
2023-02-02T10:11:12.395Z,2.00
2023-02-02T10:13:59.515Z,1.97
2023-02-02T10:16:26.512Z,1.90
2023-02-02T10:18:57.977Z,2.10
2023-02-02T10:21:45.771Z,2.00
2023-02-02T10:24:27.945Z,2.03
2023-02-02T10:27:05.662Z,2.20
2023-02-02T10:29:48.930Z,2.90
2023-02-02T10:32:30.921Z,2.20
2023-02-02T10:35:22.418Z,3.17
2023-02-02T10:38:00.879Z,2.73
2023-02-02T10:40:44.500Z,2.53
2023-02-02T10:43:47.993Z,2.70
2023-02-02T10:46:27.796Z,2.00
2023-02-02T10:49:21.612Z,2.20
2023-02-02T10:52:04.776Z,2.70
2023-02-02T10:54:58.445Z,2.70
2023-02-02T10:57:47.727Z,2.83
2023-02-02T11:00:20.201Z,2.43
2023-02-02T11:02:49.802Z,2.20
2023-02-02T11:05:49.276Z,2.40
2023-02-02T11:08:18.900Z,3.00
2023-02-02T11:10:47.301Z,2.23
2023-02-02T11:13:31.816Z,2.17
2023-02-02T11:16:16.837Z,2.83
2023-02-02T11:18:55.268Z,2.17
2023-02-02T11:21:38.042Z,2.10
2023-02-02T11:24:21.271Z,2.93
2023-02-02T11:27:27.721Z,2.73
2023-02-02T11:34:33.149Z,2.73
2023-02-02T11:37:40.098Z,2.20
2023-02-02T11:40:55.481Z,2.20
2023-02-02T11:50:39.209Z,2.23
2023-02-02T11:53:31.012Z,1.90
2023-02-02T12:04:24.393Z,2.50
2023-02-02T12:07:00.528Z,2.33
2023-02-02T12:09:47.772Z,2.33
2023-02-02T12:17:06.371Z,2.40
2023-02-02T12:20:20.037Z,2.40
2023-02-02T12:22:58.811Z,2.40
2023-02-02T12:25:33.794Z,2.20
2023-02-02T12:28:39.572Z,2.33
2023-02-02T12:31:20.915Z,1.90
2023-02-02T12:34:21.352Z,2.30
2023-02-02T12:37:04.078Z,2.00
2023-02-02T12:39:45.234Z,2.30
2023-02-02T12:42:33.080Z,1.83
2023-02-02T12:45:07.912Z,1.70
2023-02-02T12:47:48.079Z,2.03
2023-02-02T12:50:39.661Z,2.57
2023-02-02T12:53:17.075Z,2.50
2023-02-02T12:56:04.978Z,1.83
2023-02-02T12:58:39.793Z,2.10
2023-02-02T13:01:31.862Z,1.83
2023-02-02T13:04:31.227Z,2.37
2023-02-02T13:07:29.091Z,2.13
2023-02-02T13:10:25.584Z,2.87
2023-02-02T13:12:58.143Z,2.23
2023-02-02T13:15:32.076Z,2.10
2023-02-02T13:18:00.924Z,2.47
2023-02-02T13:20:36.746Z,3.07
2023-02-02T13:23:21.948Z,3.03
2023-02-02T13:26:16.390Z,2.70
2023-02-02T13:29:05.861Z,3.30
2023-02-02T13:31:45.806Z,2.63
2023-02-02T13:34:35.863Z,2.70
2023-02-02T13:37:23.736Z,4.00
2023-02-02T13:39:57.026Z,3.20
2023-02-02T13:42:42.198Z,3.17
2023-02-02T13:45:49.793Z,3.47
2023-02-02T13:48:33.927Z,2.80
2023-02-02T13:51:15.923Z,3.53
2023-02-02T13:54:19.960Z,2.70
2023-02-02T14:00:03.654Z,2.43
2023-02-02T14:02:56.725Z,3.00
2023-02-02T14:05:27.292Z,2.83
2023-02-02T14:08:21.948Z,3.10
2023-02-02T14:11:33.513Z,3.57
2023-02-02T14:17:22.634Z,4.00
2023-02-02T14:20:27.681Z,3.13
2023-02-02T14:26:49.030Z,3.40
2023-02-02T14:30:12.966Z,3.03
2023-02-02T14:33:50.008Z,4.07
2023-02-02T14:36:22.879Z,2.97
2023-02-02T14:39:11.620Z,3.50
2023-02-02T14:42:14.879Z,3.10
2023-02-02T14:45:19.317Z,2.40
2023-02-02T14:47:54.617Z,3.70
2023-02-02T14:50:39.472Z,2.73
2023-02-02T14:53:13.174Z,2.67
2023-02-02T14:56:15.399Z,3.30
2023-02-02T14:58:51.341Z,5.37
2023-02-02T15:01:23.652Z,4.23
2023-02-02T15:04:10.284Z,5.00
2023-02-02T15:10:48.358Z,3.43
2023-02-02T15:13:17.506Z,3.40
2023-02-02T15:24:23.657Z,3.47
2023-02-02T15:27:16.166Z,3.57
2023-02-02T15:33:44.035Z,3.80
2023-02-02T15:37:16.397Z,3.53
2023-02-02T15:45:04.692Z,4.53
2023-02-02T15:50:39.661Z,4.50
2023-02-02T15:53:06.519Z,4.20
2023-02-02T15:55:42.821Z,4.00
2023-02-02T15:58:24.469Z,4.00
2023-02-02T16:01:03.592Z,3.90
2023-02-02T16:03:46.920Z,4.33
2023-02-02T16:06:23.043Z,4.97
2023-02-02T16:09:44.308Z,4.10
2023-02-02T16:12:24.713Z,4.20
2023-02-02T16:14:53.676Z,4.30
2023-02-02T16:18:20.468Z,4.50
2023-02-02T16:21:41.024Z,4.47
2023-02-02T16:24:22.643Z,4.63
2023-02-02T16:26:51.475Z,4.70
2023-02-02T16:29:19.220Z,4.50
2023-02-02T16:31:48.513Z,4.53
2023-02-02T16:34:22.105Z,5.00
2023-02-02T16:37:12.472Z,5.47
2023-02-02T16:39:43.163Z,5.43
2023-02-02T16:42:22.844Z,6.07
2023-02-02T16:44:49.728Z,6.63
2023-02-02T16:47:26.603Z,6.30
2023-02-02T16:50:30.898Z,6.87
2023-02-02T16:53:21.791Z,6.50
2023-02-02T16:55:51.162Z,7.20
2023-02-02T16:58:28.546Z,7.40
2023-02-02T17:01:08.828Z,7.50
2023-02-02T17:03:46.582Z,8.03
2023-02-02T17:06:13.978Z,7.40
2023-02-02T17:08:48.587Z,9.40
2023-02-02T17:11:28.681Z,7.87
2023-02-02T17:13:55.439Z,8.27
2023-02-02T17:16:25.495Z,8.70
2023-02-02T17:18:56.347Z,7.60
2023-02-02T17:21:24.576Z,8.00
2023-02-02T17:23:54.168Z,7.90
2023-02-02T17:26:31.606Z,8.33
2023-02-02T17:29:00.344Z,7.90
2023-02-02T17:31:27.225Z,8.27
2023-02-02T17:34:01.150Z,8.33
2023-02-02T17:36:27.757Z,8.17
2023-02-02T17:38:54.546Z,8.37
2023-02-02T17:41:21.238Z,7.93
2023-02-02T17:43:47.857Z,8.70
2023-02-02T17:46:18.680Z,8.90
2023-02-02T17:48:45.509Z,8.20
2023-02-02T17:51:16.843Z,8.00
2023-02-02T17:53:57.590Z,8.97
2023-02-02T17:56:31.812Z,8.83
2023-02-02T17:58:58.462Z,17.80
2023-02-02T18:01:25.142Z,8.33
2023-02-02T18:03:51.803Z,8.97
2023-02-02T18:06:18.632Z,8.30
2023-02-02T18:08:51.750Z,8.63
2023-02-02T18:11:18.704Z,8.17
2023-02-02T18:13:49.873Z,10.03
2023-02-02T18:16:24.940Z,8.13
2023-02-02T18:18:51.868Z,9.10
2023-02-02T18:21:18.652Z,7.30
2023-02-02T18:23:48.750Z,8.60
2023-02-02T18:26:18.217Z,8.13
2023-02-02T18:28:46.060Z,8.40
2023-02-02T18:31:14.292Z,7.87
2023-02-02T18:33:41.732Z,7.80
2023-02-02T18:36:19.043Z,9.60
2023-02-02T18:38:58.658Z,8.10
2023-02-02T18:41:25.540Z,8.40
2023-02-02T18:43:54.764Z,7.90
2023-02-02T18:46:28.540Z,8.97
2023-02-02T18:48:55.747Z,8.67
2023-02-02T18:51:22.742Z,8.60
2023-02-02T18:54:00.000Z,8.40
2023-02-02T18:56:27.602Z,8.30
2023-02-02T18:58:54.622Z,7.83
2023-02-02T19:01:31.375Z,7.67
2023-02-02T19:03:58.562Z,7.80
2023-02-02T19:06:45.409Z,8.03
2023-02-02T19:09:17.364Z,7.43
2023-02-02T19:11:49.153Z,7.73
2023-02-02T19:14:35.424Z,7.70
2023-02-02T19:17:14.795Z,8.60
2023-02-02T19:19:43.097Z,8.70
2023-02-02T19:22:24.283Z,8.00
2023-02-02T19:24:51.225Z,9.20
2023-02-02T19:27:21.251Z,8.70
2023-02-02T19:30:00.265Z,10.77
2023-02-02T19:32:31.906Z,9.47
2023-02-02T19:35:04.287Z,8.73
2023-02-02T19:37:32.519Z,8.93
2023-02-02T19:40:08.753Z,9.10
2023-02-02T19:42:40.601Z,8.00
2023-02-02T19:45:25.712Z,10.20
2023-02-02T19:48:00.575Z,8.93
2023-02-02T19:50:40.690Z,10.40
2023-02-02T19:53:30.449Z,8.80
2023-02-02T19:55:57.547Z,11.30
2023-02-02T19:58:28.316Z,10.60
2023-02-02T20:00:58.144Z,9.50
2023-02-02T20:03:25.017Z,8.50
2023-02-02T20:05:52.947Z,9.50
2023-02-02T20:08:31.821Z,9.27
2023-02-02T20:11:00.892Z,8.67
2023-02-02T20:13:54.982Z,8.47
2023-02-02T20:16:24.217Z,8.57
2023-02-02T20:18:53.944Z,8.63
2023-02-02T20:21:36.775Z,9.17
2023-02-02T20:24:11.047Z,10.47
2023-02-02T20:26:38.352Z,9.57
2023-02-02T20:29:38.850Z,10.20
2023-02-02T20:32:06.024Z,11.17
2023-02-02T20:34:36.125Z,11.80
2023-02-02T20:37:20.299Z,10.17
2023-02-02T20:39:54.002Z,10.63
2023-02-02T20:42:20.901Z,10.83
2023-02-02T20:44:47.961Z,10.40
2023-02-02T20:47:14.702Z,11.80
2023-02-02T20:49:44.017Z,11.80
2023-02-02T20:52:18.239Z,13.10
2023-02-02T20:54:44.856Z,12.47
2023-02-02T20:57:20.184Z,14.13
2023-02-02T20:59:46.854Z,13.53
2023-02-02T21:02:28.053Z,13.30
2023-02-02T21:04:54.813Z,13.93
2023-02-02T21:07:22.015Z,11.37
2023-02-02T21:09:58.667Z,12.40
2023-02-02T21:12:25.737Z,13.80
2023-02-02T21:14:53.876Z,11.13
2023-02-02T21:17:23.696Z,12.07
2023-02-02T21:19:50.587Z,10.40
2023-02-02T21:22:17.212Z,13.80
2023-02-02T21:24:43.899Z,14.20
2023-02-02T21:27:10.609Z,14.87
2023-02-02T21:29:47.405Z,12.87
2023-02-02T21:32:14.024Z,12.77
2023-02-02T21:34:40.648Z,11.80
2023-02-02T21:37:22.526Z,12.30
2023-02-02T21:39:53.479Z,11.60
2023-02-02T21:42:24.755Z,11.27
2023-02-02T21:44:56.355Z,13.53
2023-02-02T21:47:33.464Z,13.73
2023-02-02T21:50:23.123Z,12.73
2023-02-02T21:53:09.692Z,12.57
2023-02-02T21:55:45.199Z,13.00
2023-02-02T21:58:26.274Z,16.07
2023-02-02T22:00:54.045Z,15.07
2023-02-02T22:03:26.971Z,15.43
2023-02-02T22:06:21.965Z,14.80
2023-02-02T22:08:49.781Z,15.37
2023-02-02T22:11:36.464Z,17.20
2023-02-02T22:14:24.871Z,16.47
2023-02-02T22:16:58.403Z,17.53
2023-02-02T22:19:35.453Z,17.13
2023-02-02T22:25:28.906Z,17.03
2023-02-02T22:28:01.681Z,16.03
2023-02-02T22:30:53.994Z,16.10
2023-02-02T22:33:21.827Z,17.40
2023-02-02T22:35:48.474Z,16.93
2023-02-02T22:38:25.175Z,17.57
2023-02-02T22:40:52.163Z,17.53
2023-02-02T22:43:20.037Z,18.77
2023-02-02T22:45:47.220Z,18.10
2023-02-02T22:48:29.011Z,19.07
2023-02-02T22:50:55.812Z,19.63
2023-02-02T22:53:22.416Z,18.67
2023-02-02T22:55:56.749Z,19.03
2023-02-02T22:58:24.739Z,19.53
2023-02-02T23:00:51.435Z,19.40
2023-02-02T23:03:25.418Z,20.90
2023-02-02T23:05:52.142Z,20.63
2023-02-02T23:08:19.845Z,22.10
2023-02-02T23:10:53.588Z,22.43
2023-02-02T23:13:20.676Z,21.77
2023-02-02T23:15:47.323Z,22.93
2023-02-02T23:18:14.659Z,22.67
2023-02-02T23:20:41.251Z,21.97
2023-02-02T23:23:15.496Z,21.93
2023-02-02T23:25:42.265Z,22.10
2023-02-02T23:28:10.484Z,21.87
2023-02-02T23:30:44.436Z,20.53
2023-02-02T23:33:11.489Z,22.40
2023-02-02T23:35:38.144Z,22.07
2023-02-02T23:38:04.731Z,23.03
2023-02-02T23:40:31.408Z,22.73
2023-02-02T23:43:23.421Z,23.20
2023-02-02T23:45:50.114Z,21.60
2023-02-02T23:48:17.187Z,22.20
2023-02-02T23:50:45.040Z,21.97
2023-02-02T23:53:19.573Z,21.63
2023-02-02T23:55:46.211Z,22.50
2023-02-02T23:58:13.259Z,22.63
